Belvidere, Nebraska
Current Conditions -  °F | °C
As of 12:55 PM on Thursday 23 Oct 2014 (Local Time) from KHJH Reporting Station
Scattered Clouds Scattered Clouds  
Wind Chill: 67°   Ceiling: Unl
Heat Index: 67°   Visibility: 10mi
Dew Point: 60°   Wind: 6mph
Humidity: 79%   Direction: 260°W
Pressure: 30.08"   Gusts: NA
Location:  40.25°N, 97.56°W
Report Text: KHJH 231755Z AUTO 26005KT 10SM SCT013 19/15 A3008 RMK AO2 T01920154 10192 20108
Loading
Personal Weather Stations






























Interactive Weather Map
Tropical Storm Tracking
New forecast layout! Learn more

10-Day Weather Forecast

Advertisements
Track Severe Weather on mobile